createdAt,value
2022-10-17T00:00:52.495Z,12.60
2022-10-17T00:02:39.555Z,12.60
2022-10-17T00:04:12.292Z,12.60
2022-10-17T00:05:46.590Z,12.60
2022-10-17T00:07:18.701Z,12.60
2022-10-17T00:08:51.035Z,12.60
2022-10-17T00:10:23.665Z,12.50
2022-10-17T00:11:55.738Z,12.50
2022-10-17T00:13:28.882Z,12.50
2022-10-17T00:15:03.978Z,12.50
2022-10-17T00:16:37.538Z,12.40
2022-10-17T00:18:09.767Z,12.50
2022-10-17T00:19:42.018Z,12.40
2022-10-17T00:21:19.135Z,12.40
2022-10-17T00:22:52.375Z,12.40
2022-10-17T00:24:24.811Z,12.40
2022-10-17T00:26:05.807Z,12.40
2022-10-17T00:27:40.446Z,12.30
2022-10-17T00:29:12.451Z,12.30
2022-10-17T00:30:44.536Z,12.30
2022-10-17T00:32:17.834Z,12.30
2022-10-17T00:33:50.422Z,12.30
2022-10-17T00:35:22.448Z,12.30
2022-10-17T00:36:54.747Z,12.30
2022-10-17T00:38:26.763Z,12.30
2022-10-17T00:39:59.208Z,12.30
2022-10-17T00:41:33.568Z,12.30
2022-10-17T00:43:15.912Z,12.30
2022-10-17T00:44:47.913Z,12.30
2022-10-17T00:46:22.348Z,12.30
2022-10-17T00:48:09.213Z,12.30
2022-10-17T00:49:41.364Z,12.30
2022-10-17T00:51:14.743Z,12.20
2022-10-17T00:52:48.929Z,12.20
2022-10-17T00:54:25.563Z,12.20
2022-10-17T00:55:57.775Z,12.20
2022-10-17T00:57:32.044Z,12.20
2022-10-17T01:00:37.122Z,12.10
2022-10-17T01:02:15.333Z,12.10
2022-10-17T01:03:47.394Z,12.10
2022-10-17T01:05:20.635Z,12.10
2022-10-17T01:06:52.667Z,12.10
2022-10-17T01:08:24.722Z,12.10
2022-10-17T01:09:57.138Z,12.10
2022-10-17T01:11:35.778Z,12.10
2022-10-17T01:13:18.342Z,12.10
2022-10-17T01:15:12.499Z,12.10
2022-10-17T01:16:55.044Z,12.00
2022-10-17T01:18:35.383Z,12.00
2022-10-17T01:20:19.484Z,12.00
2022-10-17T01:22:09.896Z,12.00
2022-10-17T01:24:09.589Z,12.00
2022-10-17T01:26:08.028Z,12.00
2022-10-17T01:27:57.181Z,12.00
2022-10-17T01:30:01.996Z,11.90
2022-10-17T01:31:39.498Z,11.90
2022-10-17T01:33:44.651Z,11.90
2022-10-17T01:35:26.959Z,11.90
2022-10-17T01:37:17.878Z,11.90
2022-10-17T01:38:59.045Z,11.90
2022-10-17T01:40:49.096Z,11.90
2022-10-17T01:42:29.025Z,11.90
2022-10-17T01:44:13.631Z,11.80
2022-10-17T01:45:49.506Z,11.80
2022-10-17T01:47:27.665Z,11.80
2022-10-17T01:49:02.848Z,11.80
2022-10-17T01:50:41.549Z,11.80
2022-10-17T01:52:19.660Z,11.80
2022-10-17T01:54:01.624Z,11.70
2022-10-17T01:55:38.973Z,11.70
2022-10-17T01:57:24.627Z,11.70
2022-10-17T01:59:20.058Z,11.70
2022-10-17T02:00:54.845Z,11.80
2022-10-17T02:02:27.754Z,11.80
2022-10-17T02:04:02.379Z,11.80
2022-10-17T02:05:39.823Z,11.80
2022-10-17T02:07:13.916Z,11.80
2022-10-17T02:08:51.360Z,11.80
2022-10-17T02:10:47.364Z,11.80
2022-10-17T02:12:35.488Z,11.80
2022-10-17T02:14:18.998Z,11.80
2022-10-17T02:16:16.932Z,11.80
2022-10-17T02:18:10.536Z,11.90
2022-10-17T02:20:26.015Z,11.90
2022-10-17T02:22:22.774Z,11.90
2022-10-17T02:24:19.941Z,11.90
2022-10-17T02:26:10.107Z,11.90
2022-10-17T02:27:45.087Z,11.90
2022-10-17T02:29:21.880Z,11.80
2022-10-17T02:31:03.456Z,11.90
2022-10-17T02:32:52.487Z,11.90
2022-10-17T02:34:30.082Z,11.90
2022-10-17T02:36:09.707Z,11.90
2022-10-17T02:37:44.704Z,11.90
2022-10-17T02:39:18.920Z,11.90
2022-10-17T02:40:53.758Z,11.90
2022-10-17T02:42:28.587Z,11.90
2022-10-17T02:44:03.483Z,11.90
2022-10-17T02:45:37.750Z,11.90
2022-10-17T02:47:24.911Z,11.90
2022-10-17T02:49:05.797Z,11.90
2022-10-17T02:50:42.138Z,11.90
2022-10-17T02:52:42.742Z,11.80
2022-10-17T02:54:56.071Z,11.90
2022-10-17T02:56:33.918Z,11.90
2022-10-17T02:58:16.643Z,11.80
2022-10-17T02:59:51.036Z,11.80
2022-10-17T03:01:24.275Z,11.90
2022-10-17T03:02:56.468Z,11.90
2022-10-17T03:04:28.684Z,11.90
2022-10-17T03:06:00.750Z,11.90
2022-10-17T03:07:32.810Z,11.90
2022-10-17T03:09:05.191Z,11.80
2022-10-17T03:10:37.439Z,11.80
2022-10-17T03:12:09.633Z,11.80
2022-10-17T03:13:41.858Z,11.80
2022-10-17T03:15:14.542Z,11.80
2022-10-17T03:16:46.591Z,11.80
2022-10-17T03:18:18.839Z,11.80
2022-10-17T03:19:50.886Z,11.80
2022-10-17T03:21:23.003Z,11.70
2022-10-17T03:22:55.378Z,11.70
2022-10-17T03:24:27.554Z,11.80
2022-10-17T03:26:06.255Z,11.80
2022-10-17T03:27:38.495Z,11.80
2022-10-17T03:29:10.559Z,11.80
2022-10-17T03:30:42.764Z,11.80
2022-10-17T03:32:15.116Z,11.80
2022-10-17T03:33:47.208Z,11.70
2022-10-17T03:35:19.250Z,11.70
2022-10-17T03:36:51.686Z,11.80
2022-10-17T03:38:23.682Z,11.80
2022-10-17T03:39:55.732Z,11.80
2022-10-17T03:41:28.041Z,11.70
2022-10-17T03:43:00.103Z,11.70
2022-10-17T03:44:32.340Z,11.70
2022-10-17T03:46:05.627Z,11.70
2022-10-17T03:47:37.904Z,11.70
2022-10-17T03:49:10.011Z,11.60
2022-10-17T03:50:42.231Z,11.60
2022-10-17T03:52:15.339Z,11.70
2022-10-17T03:53:47.464Z,11.70
2022-10-17T03:55:19.787Z,11.70
2022-10-17T03:56:51.895Z,11.70
2022-10-17T03:58:23.983Z,11.70
2022-10-17T03:59:56.214Z,11.70
2022-10-17T04:01:28.268Z,11.70
2022-10-17T04:03:00.312Z,11.70
2022-10-17T04:04:32.594Z,11.70
2022-10-17T04:06:06.659Z,11.70
2022-10-17T04:07:38.724Z,11.70
2022-10-17T04:09:11.297Z,11.70
2022-10-17T04:10:43.360Z,11.70
2022-10-17T04:12:15.439Z,11.70
2022-10-17T04:13:48.303Z,11.70
2022-10-17T04:15:20.383Z,11.70
2022-10-17T04:16:53.594Z,11.70
2022-10-17T04:18:26.047Z,11.70
2022-10-17T04:19:59.577Z,11.70
2022-10-17T04:21:31.722Z,11.70
2022-10-17T04:23:04.112Z,11.70
2022-10-17T04:24:36.114Z,11.70
2022-10-17T04:26:08.196Z,11.70
2022-10-17T04:27:40.451Z,11.70
2022-10-17T04:29:12.777Z,11.70
2022-10-17T04:30:45.627Z,11.70
2022-10-17T04:32:18.016Z,11.70
2022-10-17T04:33:50.898Z,11.70
2022-10-17T04:35:23.180Z,11.70
2022-10-17T04:36:55.455Z,11.60
2022-10-17T04:38:29.205Z,11.60
2022-10-17T04:40:01.231Z,11.60
2022-10-17T04:41:33.504Z,11.60
2022-10-17T04:43:05.532Z,11.60
2022-10-17T04:44:37.688Z,11.60
2022-10-17T04:46:12.391Z,11.60
2022-10-17T04:47:44.424Z,11.60
2022-10-17T04:49:16.503Z,11.50
2022-10-17T04:51:05.939Z,11.60
2022-10-17T04:52:38.193Z,11.60
2022-10-17T04:54:10.227Z,11.50
2022-10-17T04:55:42.579Z,11.50
2022-10-17T04:57:15.019Z,11.50
2022-10-17T04:58:48.162Z,11.50
2022-10-17T05:00:20.664Z,11.50
2022-10-17T05:01:52.654Z,11.50
2022-10-17T05:03:24.935Z,11.50
2022-10-17T05:04:57.258Z,11.50
2022-10-17T05:06:29.591Z,11.50
2022-10-17T05:08:01.939Z,11.50
2022-10-17T05:09:34.191Z,11.50
2022-10-17T05:11:15.010Z,11.40
2022-10-17T05:12:48.523Z,11.40
2022-10-17T05:14:21.347Z,11.40
2022-10-17T05:15:53.536Z,11.40
2022-10-17T05:17:25.578Z,11.40
2022-10-17T05:18:58.667Z,11.50
2022-10-17T05:20:30.912Z,11.50
2022-10-17T05:22:02.968Z,11.50
2022-10-17T05:23:35.279Z,11.50
2022-10-17T05:25:07.631Z,11.50
2022-10-17T05:26:40.263Z,11.60
2022-10-17T05:28:12.522Z,11.70
2022-10-17T05:29:45.663Z,11.80
2022-10-17T05:31:18.055Z,11.80
2022-10-17T05:32:54.977Z,11.90
2022-10-17T05:34:27.155Z,12.00
2022-10-17T05:35:59.714Z,12.10
2022-10-17T05:37:32.251Z,12.30
2022-10-17T05:39:04.343Z,12.40
2022-10-17T05:40:36.428Z,12.60
2022-10-17T05:42:08.779Z,12.80
2022-10-17T05:43:41.022Z,13.00
2022-10-17T05:45:16.514Z,13.10
2022-10-17T05:46:50.407Z,13.20
2022-10-17T05:48:23.651Z,13.30
2022-10-17T05:49:55.653Z,13.50
2022-10-17T05:51:27.971Z,13.60
2022-10-17T05:53:00.055Z,13.70
2022-10-17T05:54:32.552Z,13.80
2022-10-17T05:56:08.007Z,13.70
2022-10-17T05:57:40.246Z,13.90
2022-10-17T05:59:12.265Z,14.00
2022-10-17T06:02:22.020Z,14.70
2022-10-17T06:03:54.246Z,14.90
2022-10-17T06:05:26.785Z,15.20
2022-10-17T06:06:58.859Z,15.40
2022-10-17T06:08:31.480Z,15.60
2022-10-17T06:10:05.386Z,15.90
2022-10-17T06:11:37.563Z,16.10
2022-10-17T06:13:10.088Z,16.30
2022-10-17T06:14:42.798Z,16.30
2022-10-17T06:16:15.024Z,16.40
2022-10-17T06:17:47.858Z,16.50
2022-10-17T06:19:20.345Z,16.90
2022-10-17T06:20:52.708Z,17.40
2022-10-17T06:22:24.900Z,17.40
2022-10-17T06:23:57.370Z,17.40
2022-10-17T06:25:38.632Z,17.70
2022-10-17T06:27:12.098Z,18.10
2022-10-17T06:28:44.752Z,18.10
2022-10-17T06:30:16.903Z,18.10
2022-10-17T06:31:49.139Z,18.10
2022-10-17T06:33:23.492Z,18.00
2022-10-17T06:34:56.185Z,18.40
2022-10-17T06:36:28.471Z,18.30
2022-10-17T06:38:00.999Z,18.30
2022-10-17T06:39:35.285Z,18.30
2022-10-17T06:41:15.890Z,18.60
2022-10-17T06:42:48.303Z,18.50
2022-10-17T06:44:20.672Z,18.40
2022-10-17T06:45:52.958Z,18.00
2022-10-17T06:47:25.292Z,17.80
2022-10-17T06:48:57.684Z,18.00
2022-10-17T06:50:31.728Z,17.90
2022-10-17T06:52:04.626Z,18.30
2022-10-17T06:53:37.810Z,18.20
2022-10-17T06:55:09.965Z,18.20
2022-10-17T06:56:42.281Z,18.10
2022-10-17T06:58:14.496Z,18.00
2022-10-17T06:59:46.783Z,17.90
2022-10-17T07:01:19.007Z,18.00
2022-10-17T07:02:51.001Z,17.80
2022-10-17T07:04:23.048Z,17.80
2022-10-17T07:05:56.277Z,18.10
2022-10-17T07:07:32.509Z,18.10
2022-10-17T07:09:06.869Z,18.20
2022-10-17T07:10:39.871Z,18.20
2022-10-17T07:12:12.816Z,18.00
2022-10-17T07:13:45.849Z,17.70
2022-10-17T07:15:18.161Z,17.60
2022-10-17T07:16:50.852Z,17.50
2022-10-17T07:18:22.971Z,17.50
2022-10-17T07:19:55.428Z,17.60
2022-10-17T07:21:27.530Z,17.70
2022-10-17T07:22:59.664Z,17.70
2022-10-17T07:24:32.379Z,18.00
2022-10-17T07:26:07.928Z,18.30
2022-10-17T07:27:39.955Z,18.50
2022-10-17T07:29:12.355Z,18.20
2022-10-17T07:30:45.008Z,18.10
2022-10-17T07:32:17.236Z,17.90
2022-10-17T07:33:50.342Z,17.80
2022-10-17T07:35:22.666Z,17.70
2022-10-17T07:36:54.815Z,17.90
2022-10-17T07:38:28.135Z,17.90
2022-10-17T07:40:00.244Z,18.00
2022-10-17T07:41:32.311Z,17.70
2022-10-17T07:43:04.550Z,17.80
2022-10-17T07:44:36.705Z,17.80
2022-10-17T07:46:11.437Z,17.60
2022-10-17T07:47:43.742Z,17.40
2022-10-17T07:49:16.171Z,17.70
2022-10-17T07:50:48.683Z,17.50
2022-10-17T07:52:20.995Z,17.50
2022-10-17T07:53:53.222Z,17.30
2022-10-17T07:55:25.235Z,17.50
2022-10-17T07:56:57.591Z,17.60
2022-10-17T07:58:31.254Z,17.90
2022-10-17T08:00:03.539Z,17.70
2022-10-17T08:01:36.229Z,17.50
2022-10-17T08:03:08.561Z,17.60
2022-10-17T08:04:40.788Z,18.10
2022-10-17T08:06:13.572Z,18.00
2022-10-17T08:07:45.648Z,18.20
2022-10-17T08:09:17.701Z,18.30
2022-10-17T08:10:49.922Z,18.80
2022-10-17T08:12:22.388Z,18.50
2022-10-17T08:13:54.407Z,18.80
2022-10-17T08:15:30.876Z,19.50
2022-10-17T08:17:04.500Z,19.90
2022-10-17T08:18:38.762Z,19.60
2022-10-17T08:20:11.982Z,20.00
2022-10-17T08:21:45.110Z,20.20
2022-10-17T08:23:17.510Z,20.20
2022-10-17T08:24:50.002Z,20.30
2022-10-17T08:26:22.593Z,20.80
2022-10-17T08:27:55.038Z,20.50
2022-10-17T08:29:27.322Z,20.90
2022-10-17T08:31:04.559Z,20.40
2022-10-17T08:32:36.611Z,20.60
2022-10-17T08:34:08.914Z,20.60
2022-10-17T08:35:41.148Z,20.80
2022-10-17T08:37:13.928Z,20.70
2022-10-17T08:38:50.321Z,21.40
2022-10-17T08:40:27.952Z,21.60
2022-10-17T08:42:05.912Z,21.60
2022-10-17T08:43:44.171Z,21.00
2022-10-17T08:45:27.395Z,20.50
2022-10-17T08:47:03.818Z,20.90
2022-10-17T08:48:45.510Z,20.70
2022-10-17T08:50:37.146Z,20.70
2022-10-17T08:52:28.998Z,20.70
2022-10-17T08:54:12.619Z,20.60
2022-10-17T08:55:47.875Z,20.60
2022-10-17T08:57:20.101Z,20.90
2022-10-17T08:58:52.912Z,20.40
2022-10-17T09:00:28.329Z,20.40
2022-10-17T09:02:38.203Z,20.30
2022-10-17T09:04:33.335Z,20.30
2022-10-17T09:06:17.435Z,20.20
2022-10-17T09:08:10.507Z,20.30
2022-10-17T09:09:51.840Z,20.20
2022-10-17T09:11:48.825Z,20.30
2022-10-17T09:14:13.736Z,20.10
2022-10-17T09:16:10.871Z,20.20
2022-10-17T09:17:52.869Z,20.60
2022-10-17T09:19:36.631Z,20.60
2022-10-17T09:21:21.012Z,20.30
2022-10-17T09:23:01.067Z,20.20
2022-10-17T09:24:42.004Z,20.50
2022-10-17T09:26:15.221Z,20.70
2022-10-17T09:28:10.484Z,20.60
2022-10-17T09:29:46.242Z,20.40
2022-10-17T09:31:51.458Z,21.10
2022-10-17T09:33:42.199Z,21.30
2022-10-17T09:35:23.316Z,21.20
2022-10-17T09:36:59.363Z,21.20
2022-10-17T09:38:39.499Z,21.40
2022-10-17T09:40:23.090Z,21.80
2022-10-17T09:41:58.072Z,22.10
2022-10-17T09:43:30.737Z,22.70
2022-10-17T09:45:19.523Z,22.90
2022-10-17T09:46:54.511Z,22.90
2022-10-17T09:48:35.492Z,23.40
2022-10-17T09:50:30.291Z,23.70
2022-10-17T09:52:33.239Z,23.70
2022-10-17T09:54:28.144Z,24.00
2022-10-17T09:56:07.618Z,23.10
2022-10-17T09:58:05.482Z,23.00
2022-10-17T10:00:02.237Z,23.30
2022-10-17T10:01:34.918Z,22.70
2022-10-17T10:03:25.972Z,22.90
2022-10-17T10:05:06.363Z,22.90
2022-10-17T10:06:41.032Z,22.40
2022-10-17T10:08:17.495Z,22.60
2022-10-17T10:09:51.394Z,22.40
2022-10-17T10:11:44.002Z,22.90
2022-10-17T10:13:22.255Z,23.00
2022-10-17T10:14:55.499Z,23.40
2022-10-17T10:16:33.227Z,23.60
2022-10-17T10:20:36.141Z,24.20
2022-10-17T10:22:19.039Z,23.90
2022-10-17T10:24:12.312Z,23.90
2022-10-17T10:25:59.670Z,24.00
2022-10-17T10:29:20.359Z,23.40
2022-10-17T10:30:54.206Z,23.30
2022-10-17T10:32:30.652Z,22.90
2022-10-17T10:34:19.739Z,23.10
2022-10-17T10:35:55.611Z,23.20
2022-10-17T10:37:33.834Z,23.70
2022-10-17T10:39:15.670Z,23.90
2022-10-17T10:40:52.520Z,23.40
2022-10-17T10:42:39.542Z,23.90
2022-10-17T10:44:16.163Z,23.90
2022-10-17T10:45:49.169Z,23.30
2022-10-17T10:47:23.054Z,23.40
2022-10-17T10:48:59.656Z,23.20
2022-10-17T10:50:34.344Z,23.50
2022-10-17T10:52:08.061Z,23.80
2022-10-17T10:53:49.944Z,24.00
2022-10-17T10:55:46.935Z,23.60
2022-10-17T10:57:24.602Z,23.30
2022-10-17T10:59:09.097Z,23.20
2022-10-17T11:00:41.414Z,23.30
2022-10-17T11:02:22.466Z,23.50
2022-10-17T11:04:16.175Z,23.80
2022-10-17T11:05:55.878Z,23.70
2022-10-17T11:07:32.706Z,23.60
2022-10-17T11:09:15.979Z,23.40
2022-10-17T11:11:00.810Z,23.70
2022-10-17T11:12:46.490Z,23.90
2022-10-17T11:14:32.362Z,23.10
2022-10-17T11:16:12.863Z,23.30
2022-10-17T11:17:57.014Z,23.20
2022-10-17T11:19:38.223Z,23.00
2022-10-17T11:21:18.948Z,23.20
2022-10-17T11:23:19.782Z,23.30
2022-10-17T11:24:59.729Z,23.50
2022-10-17T11:26:35.699Z,23.10
2022-10-17T11:28:20.293Z,23.60
2022-10-17T11:29:52.515Z,23.90
2022-10-17T11:31:41.412Z,23.90
2022-10-17T11:33:20.220Z,24.10
2022-10-17T11:34:58.833Z,23.90
2022-10-17T11:36:36.423Z,23.70
2022-10-17T11:38:26.393Z,23.80
2022-10-17T11:40:09.888Z,23.30
2022-10-17T11:41:48.614Z,23.00
2022-10-17T11:43:25.234Z,23.10
2022-10-17T11:45:06.449Z,23.00
2022-10-17T11:46:41.692Z,22.90
2022-10-17T11:48:32.142Z,23.10
2022-10-17T11:52:43.986Z,23.70
2022-10-17T11:54:30.684Z,23.40
2022-10-17T11:56:03.137Z,23.10
2022-10-17T11:58:12.930Z,23.30
2022-10-17T12:00:13.922Z,23.30
2022-10-17T12:01:54.958Z,23.30
2022-10-17T12:03:36.192Z,23.20
2022-10-17T12:05:11.020Z,23.10
2022-10-17T12:07:02.105Z,23.00
2022-10-17T12:08:34.791Z,22.80
2022-10-17T12:10:44.152Z,22.70
2022-10-17T12:12:28.623Z,22.70
2022-10-17T12:14:05.943Z,22.60
2022-10-17T12:15:38.312Z,22.60
2022-10-17T12:17:40.929Z,22.60
2022-10-17T12:19:21.143Z,22.50
2022-10-17T12:21:00.530Z,22.60
2022-10-17T12:22:33.548Z,22.80
2022-10-17T12:24:05.648Z,22.60
2022-10-17T12:25:49.667Z,22.80
2022-10-17T12:27:46.322Z,23.10
2022-10-17T12:29:28.958Z,23.30
2022-10-17T12:31:05.940Z,23.30
2022-10-17T12:33:04.111Z,23.40
2022-10-17T12:34:38.796Z,23.40
2022-10-17T12:36:17.158Z,23.30
2022-10-17T12:37:49.232Z,23.50
2022-10-17T12:39:42.123Z,23.70
2022-10-17T12:41:14.794Z,23.80
2022-10-17T12:42:49.735Z,24.00
2022-10-17T12:44:22.260Z,24.00
2022-10-17T12:45:56.767Z,24.00
2022-10-17T12:47:38.595Z,24.00
2022-10-17T12:49:36.130Z,24.30
2022-10-17T12:53:08.008Z,24.40
2022-10-17T12:54:47.784Z,24.30
2022-10-17T12:56:31.536Z,24.40
2022-10-17T12:58:08.178Z,24.40
2022-10-17T12:59:44.164Z,24.60
2022-10-17T13:01:30.777Z,24.60
2022-10-17T13:03:16.412Z,24.50
2022-10-17T13:04:50.779Z,24.50
2022-10-17T13:06:26.829Z,24.60
2022-10-17T13:08:02.215Z,24.70
2022-10-17T13:09:42.835Z,24.70
2022-10-17T13:11:15.399Z,24.60
2022-10-17T13:12:48.697Z,24.60
2022-10-17T13:14:22.890Z,24.70
2022-10-17T13:15:55.607Z,24.80
2022-10-17T13:17:30.794Z,24.60
2022-10-17T13:19:24.912Z,24.40
2022-10-17T13:21:02.828Z,24.40
2022-10-17T13:22:34.940Z,24.50
2022-10-17T13:24:38.866Z,24.50
2022-10-17T13:26:20.224Z,24.30
2022-10-17T13:28:04.928Z,24.40
2022-10-17T13:29:44.677Z,24.30
2022-10-17T13:31:44.491Z,24.40
2022-10-17T13:33:32.172Z,24.20
2022-10-17T13:35:05.567Z,24.00
2022-10-17T13:36:38.003Z,23.70
2022-10-17T13:38:12.884Z,23.90
2022-10-17T13:40:16.211Z,23.80
2022-10-17T13:41:40.563Z,23.80
2022-10-17T13:43:18.651Z,23.70
2022-10-17T13:44:51.354Z,23.80
2022-10-17T13:46:43.098Z,23.80
2022-10-17T13:48:26.979Z,23.40
2022-10-17T13:49:59.867Z,23.00
2022-10-17T13:51:32.155Z,23.10
2022-10-17T13:53:15.948Z,23.00
2022-10-17T13:54:53.855Z,23.20
2022-10-17T13:56:29.169Z,23.20
2022-10-17T13:58:18.122Z,23.40
2022-10-17T14:00:00.807Z,23.50
2022-10-17T14:01:32.909Z,23.50
2022-10-17T14:03:05.003Z,23.50
2022-10-17T14:05:04.159Z,23.60
2022-10-17T14:06:31.198Z,23.40
2022-10-17T14:08:15.028Z,23.40
2022-10-17T14:09:49.164Z,23.30
2022-10-17T14:11:40.198Z,23.10
2022-10-17T14:13:22.781Z,23.20
2022-10-17T14:15:11.191Z,23.20
2022-10-17T14:16:44.244Z,23.20
2022-10-17T14:18:25.048Z,23.30
2022-10-17T14:20:40.367Z,23.30
2022-10-17T14:22:15.363Z,23.20
2022-10-17T14:23:47.468Z,23.20
2022-10-17T14:25:32.412Z,23.00
2022-10-17T14:27:44.778Z,23.10
2022-10-17T14:29:50.492Z,22.60
2022-10-17T14:31:26.555Z,22.30
2022-10-17T14:33:03.431Z,22.40
2022-10-17T14:34:38.411Z,22.30
2022-10-17T14:36:11.333Z,22.10
2022-10-17T14:37:47.768Z,22.00
2022-10-17T14:39:23.532Z,22.00
2022-10-17T14:41:30.619Z,21.90
2022-10-17T14:43:19.659Z,21.80
2022-10-17T14:44:53.835Z,21.90
2022-10-17T14:46:27.191Z,21.80
2022-10-17T14:48:16.707Z,21.70
2022-10-17T14:49:51.827Z,21.80
2022-10-17T14:51:24.120Z,21.80
2022-10-17T14:53:05.455Z,21.90
2022-10-17T14:54:38.347Z,21.80
2022-10-17T14:56:26.008Z,21.70
2022-10-17T14:57:58.051Z,21.70
2022-10-17T14:59:52.978Z,21.50
2022-10-17T15:01:22.495Z,21.60
2022-10-17T15:02:55.846Z,21.60
2022-10-17T15:04:27.903Z,21.50
2022-10-17T15:06:15.892Z,21.60
2022-10-17T15:07:48.106Z,21.50
2022-10-17T15:09:20.139Z,21.40
2022-10-17T15:10:52.776Z,21.40
2022-10-17T15:12:25.666Z,21.40
2022-10-17T15:13:57.693Z,21.30
2022-10-17T15:15:30.505Z,21.40
2022-10-17T15:17:02.543Z,21.40
2022-10-17T15:18:34.578Z,21.10
2022-10-17T15:20:14.866Z,21.00
2022-10-17T15:21:47.467Z,21.00
2022-10-17T15:23:20.686Z,20.90
2022-10-17T15:24:53.019Z,20.90
2022-10-17T15:26:27.548Z,20.90
2022-10-17T15:27:59.571Z,20.80
2022-10-17T15:29:31.813Z,20.80
2022-10-17T15:31:03.838Z,20.60
2022-10-17T15:32:35.860Z,20.70
2022-10-17T15:34:17.047Z,20.60
2022-10-17T15:35:49.145Z,20.60
2022-10-17T15:37:24.103Z,20.40
2022-10-17T15:38:59.888Z,20.40
2022-10-17T15:40:32.048Z,20.30
2022-10-17T15:42:08.407Z,20.30
2022-10-17T15:43:40.708Z,20.30
2022-10-17T15:45:16.020Z,20.20
2022-10-17T15:46:48.092Z,20.20
2022-10-17T15:48:28.385Z,19.90
2022-10-17T15:50:01.556Z,19.80
2022-10-17T15:51:34.219Z,19.70
2022-10-17T15:53:12.023Z,19.60
2022-10-17T15:54:45.496Z,19.50
2022-10-17T15:56:26.891Z,19.40
2022-10-17T15:57:59.121Z,19.40
2022-10-17T15:59:34.834Z,19.30
2022-10-17T16:01:07.213Z,19.20
2022-10-17T16:02:39.483Z,19.10
2022-10-17T16:04:14.731Z,19.10
2022-10-17T16:05:46.935Z,19.00
2022-10-17T16:07:20.343Z,18.90
2022-10-17T16:08:52.754Z,18.90
2022-10-17T16:10:28.230Z,18.80
2022-10-17T16:12:01.896Z,18.80
2022-10-17T16:13:33.978Z,18.80
2022-10-17T16:15:18.021Z,18.70
2022-10-17T16:16:50.480Z,18.70
2022-10-17T16:18:22.532Z,18.60
2022-10-17T16:19:55.079Z,18.50
2022-10-17T16:23:08.456Z,18.40
2022-10-17T16:24:40.479Z,18.40
2022-10-17T16:26:16.080Z,18.30
2022-10-17T16:27:50.471Z,18.30
2022-10-17T16:29:22.527Z,18.30
2022-10-17T16:30:55.030Z,18.20
2022-10-17T16:32:27.390Z,18.30
2022-10-17T16:34:00.846Z,18.20
2022-10-17T16:35:36.770Z,18.20
2022-10-17T16:37:10.303Z,18.10
2022-10-17T16:38:42.667Z,18.10
2022-10-17T16:40:16.023Z,18.10
2022-10-17T16:41:47.997Z,18.10
2022-10-17T16:43:20.015Z,18.10
2022-10-17T16:44:52.270Z,18.10
2022-10-17T16:46:26.741Z,18.10
2022-10-17T16:47:58.835Z,18.10
2022-10-17T16:49:31.041Z,18.10
2022-10-17T16:51:03.089Z,18.00
2022-10-17T16:52:35.181Z,18.10
2022-10-17T16:54:08.584Z,18.10
2022-10-17T16:55:40.678Z,18.10
2022-10-17T16:57:12.756Z,17.90
2022-10-17T16:58:46.367Z,17.90
2022-10-17T17:00:18.751Z,17.90
2022-10-17T17:01:50.786Z,17.90
2022-10-17T17:03:23.284Z,17.90
2022-10-17T17:04:55.495Z,17.90
2022-10-17T17:06:29.315Z,17.80
2022-10-17T17:08:03.994Z,17.80
2022-10-17T17:09:36.078Z,17.90
2022-10-17T17:11:09.910Z,17.80
2022-10-17T17:12:42.200Z,17.70
2022-10-17T17:14:14.410Z,17.70
2022-10-17T17:15:46.419Z,17.70
2022-10-17T17:17:30.472Z,17.70
2022-10-17T17:19:13.510Z,17.60
2022-10-17T17:20:45.823Z,17.60
2022-10-17T17:22:18.165Z,17.60
2022-10-17T17:23:51.667Z,17.50
2022-10-17T17:25:23.659Z,17.50
2022-10-17T17:26:56.827Z,17.50
2022-10-17T17:28:29.337Z,17.50
2022-10-17T17:30:01.812Z,17.50
2022-10-17T17:31:35.471Z,17.40
2022-10-17T17:33:07.598Z,17.40
2022-10-17T17:34:39.615Z,17.40
2022-10-17T17:36:17.347Z,17.40
2022-10-17T17:37:49.315Z,17.30
2022-10-17T17:39:21.385Z,17.30
2022-10-17T17:40:53.603Z,17.40
2022-10-17T17:42:25.747Z,17.30
2022-10-17T17:43:58.092Z,17.30
2022-10-17T17:45:30.468Z,17.30
2022-10-17T17:47:02.478Z,17.30
2022-10-17T17:48:37.497Z,17.30
2022-10-17T17:50:09.947Z,17.20
2022-10-17T17:51:46.106Z,17.20
2022-10-17T17:53:18.492Z,17.10
2022-10-17T17:54:50.787Z,17.10
2022-10-17T17:56:25.903Z,17.10
2022-10-17T17:57:57.981Z,17.00
2022-10-17T17:59:31.230Z,16.90
2022-10-17T18:01:14.273Z,16.90
2022-10-17T18:02:47.697Z,16.90
2022-10-17T18:04:20.031Z,17.00
2022-10-17T18:05:52.819Z,16.90
2022-10-17T18:07:24.936Z,16.90
2022-10-17T18:08:59.202Z,16.80
2022-10-17T18:10:31.251Z,16.80
2022-10-17T18:12:03.338Z,16.80
2022-10-17T18:13:36.177Z,16.80
2022-10-17T18:15:08.593Z,16.80
2022-10-17T18:16:40.820Z,16.80
2022-10-17T18:18:13.215Z,16.80
2022-10-17T18:19:45.224Z,16.70
2022-10-17T18:21:17.580Z,16.70
2022-10-17T18:22:49.823Z,16.70
2022-10-17T18:24:22.046Z,16.60
2022-10-17T18:26:00.900Z,16.60
2022-10-17T18:27:33.210Z,16.50
2022-10-17T18:29:05.527Z,16.50
2022-10-17T18:30:38.568Z,16.40
2022-10-17T18:32:10.821Z,16.40
2022-10-17T18:33:44.657Z,16.30
2022-10-17T18:35:16.740Z,16.30
2022-10-17T18:36:49.174Z,16.10
2022-10-17T18:38:21.206Z,16.10
2022-10-17T18:39:55.343Z,16.10
2022-10-17T18:41:28.379Z,15.90
2022-10-17T18:43:00.624Z,15.90
2022-10-17T18:44:32.736Z,15.90
2022-10-17T18:46:14.013Z,15.90
2022-10-17T18:47:48.441Z,16.00
2022-10-17T18:49:23.120Z,15.90
2022-10-17T18:50:55.404Z,15.90
2022-10-17T18:52:27.439Z,15.90
2022-10-17T18:53:59.600Z,15.80
2022-10-17T18:55:31.949Z,15.80
2022-10-17T18:57:04.344Z,15.80
2022-10-17T18:58:38.197Z,15.80
2022-10-17T19:00:11.322Z,15.80
2022-10-17T19:01:43.714Z,15.70
2022-10-17T19:03:17.091Z,15.70
2022-10-17T19:06:31.715Z,15.70
2022-10-17T19:08:03.957Z,15.70
2022-10-17T19:09:36.530Z,15.60
2022-10-17T19:11:28.198Z,15.60
2022-10-17T19:13:00.273Z,15.60
2022-10-17T19:14:34.547Z,15.60
2022-10-17T19:16:12.462Z,15.60
2022-10-17T19:17:44.481Z,15.60
2022-10-17T19:19:20.604Z,15.50
2022-10-17T19:20:53.100Z,15.50
2022-10-17T19:22:25.331Z,15.50
2022-10-17T19:24:00.273Z,15.50
2022-10-17T19:25:33.607Z,15.50
2022-10-17T19:27:07.015Z,15.50
2022-10-17T19:28:42.160Z,15.50
2022-10-17T19:30:14.807Z,15.50
2022-10-17T19:31:47.773Z,15.50
2022-10-17T19:33:20.129Z,15.50
2022-10-17T19:34:52.165Z,15.50
2022-10-17T19:36:29.063Z,15.50
2022-10-17T19:38:04.898Z,15.50
2022-10-17T19:39:37.267Z,15.50
2022-10-17T19:41:11.716Z,15.40
2022-10-17T19:42:44.250Z,15.40
2022-10-17T19:44:16.981Z,15.40
2022-10-17T19:46:00.970Z,15.40
2022-10-17T19:47:33.727Z,15.40
2022-10-17T19:49:06.614Z,15.40
2022-10-17T19:50:44.130Z,15.40
2022-10-17T19:52:16.430Z,15.40
2022-10-17T19:53:48.545Z,15.40
2022-10-17T19:55:20.626Z,15.30
2022-10-17T19:56:52.977Z,15.40
2022-10-17T19:58:26.290Z,15.40
2022-10-17T19:59:58.483Z,15.30
2022-10-17T20:01:33.984Z,15.30
2022-10-17T20:03:06.084Z,15.30
2022-10-17T20:04:49.493Z,15.20
2022-10-17T20:06:30.590Z,15.20
2022-10-17T20:08:02.623Z,15.20
2022-10-17T20:09:34.639Z,15.20
2022-10-17T20:11:11.636Z,15.20
2022-10-17T20:12:43.644Z,15.10
2022-10-17T20:14:15.665Z,15.10
2022-10-17T20:15:55.682Z,15.10
2022-10-17T20:17:27.823Z,15.10
2022-10-17T20:19:06.676Z,15.10
2022-10-17T20:20:38.977Z,15.10
2022-10-17T20:22:10.969Z,15.00
2022-10-17T20:23:43.524Z,15.00
2022-10-17T20:25:25.507Z,15.00
2022-10-17T20:26:57.671Z,15.00
2022-10-17T20:28:30.247Z,14.90
2022-10-17T20:30:03.882Z,14.90
2022-10-17T20:31:36.429Z,14.80
2022-10-17T20:33:08.457Z,14.80
2022-10-17T20:34:40.831Z,14.80
2022-10-17T20:36:14.468Z,14.70
2022-10-17T20:37:46.794Z,14.70
2022-10-17T20:39:20.641Z,14.70
2022-10-17T20:40:52.724Z,14.70
2022-10-17T20:42:26.911Z,14.70
2022-10-17T20:43:59.695Z,14.70
2022-10-17T20:45:50.377Z,14.60
2022-10-17T20:47:39.974Z,14.60
2022-10-17T20:49:19.655Z,14.60
2022-10-17T20:50:52.302Z,14.60
2022-10-17T20:52:24.440Z,14.50
2022-10-17T20:55:34.177Z,14.50
2022-10-17T20:57:06.856Z,14.50
2022-10-17T20:58:42.018Z,14.50
2022-10-17T21:00:14.417Z,14.50
2022-10-17T21:01:47.069Z,14.50
2022-10-17T21:03:19.407Z,14.40
2022-10-17T21:04:51.641Z,14.40